sensor_id;sensor_type;location;lat;lon;timestamp;P1;durP1;ratioP1;P2;durP2;ratioP2
11123;SDS011;5616;42.692;23.312;2023-01-28T00:00:55;4.87;;;4.00;;
11123;SDS011;5616;42.692;23.312;2023-01-28T00:03:22;4.07;;;3.67;;
11123;SDS011;5616;42.692;23.312;2023-01-28T00:05:48;4.33;;;3.93;;
11123;SDS011;5616;42.692;23.312;2023-01-28T00:08:15;4.40;;;4.00;;
11123;SDS011;5616;42.692;23.312;2023-01-28T00:10:42;4.70;;;3.83;;
11123;SDS011;5616;42.692;23.312;2023-01-28T00:13:11;4.40;;;4.00;;
11123;SDS011;5616;42.692;23.312;2023-01-28T00:15:38;4.60;;;4.13;;
11123;SDS011;5616;42.692;23.312;2023-01-28T00:18:05;3.90;;;3.50;;
11123;SDS011;5616;42.692;23.312;2023-01-28T00:20:32;4.93;;;3.97;;
11123;SDS011;5616;42.692;23.312;2023-01-28T00:23:00;4.00;;;3.60;;
11123;SDS011;5616;42.692;23.312;2023-01-28T00:25:27;4.07;;;3.67;;
11123;SDS011;5616;42.692;23.312;2023-01-28T00:27:54;3.57;;;3.27;;
11123;SDS011;5616;42.692;23.312;2023-01-28T00:30:22;4.40;;;3.27;;
11123;SDS011;5616;42.692;23.312;2023-01-28T00:32:49;4.27;;;3.87;;
11123;SDS011;5616;42.692;23.312;2023-01-28T00:35:18;4.30;;;3.60;;
11123;SDS011;5616;42.692;23.312;2023-01-28T00:37:45;5.20;;;3.90;;
11123;SDS011;5616;42.692;23.312;2023-01-28T00:40:12;4.40;;;3.57;;
11123;SDS011;5616;42.692;23.312;2023-01-28T00:42:39;4.97;;;4.20;;
11123;SDS011;5616;42.692;23.312;2023-01-28T00:45:06;4.37;;;3.67;;
11123;SDS011;5616;42.692;23.312;2023-01-28T00:47:35;4.20;;;3.80;;
11123;SDS011;5616;42.692;23.312;2023-01-28T00:50:02;4.77;;;4.27;;
11123;SDS011;5616;42.692;23.312;2023-01-28T00:52:29;5.30;;;4.20;;
11123;SDS011;5616;42.692;23.312;2023-01-28T00:54:56;4.80;;;4.30;;
11123;SDS011;5616;42.692;23.312;2023-01-28T00:57:24;4.83;;;4.30;;
11123;SDS011;5616;42.692;23.312;2023-01-28T00:59:51;6.80;;;4.43;;
11123;SDS011;5616;42.692;23.312;2023-01-28T01:02:20;5.90;;;4.53;;
11123;SDS011;5616;42.692;23.312;2023-01-28T01:04:48;5.90;;;4.70;;
11123;SDS011;5616;42.692;23.312;2023-01-28T01:07:25;5.27;;;4.40;;
11123;SDS011;5616;42.692;23.312;2023-01-28T01:09:59;6.07;;;4.73;;
11123;SDS011;5616;42.692;23.312;2023-01-28T01:12:26;5.13;;;4.63;;
11123;SDS011;5616;42.692;23.312;2023-01-28T01:14:53;6.03;;;4.43;;
11123;SDS011;5616;42.692;23.312;2023-01-28T01:17:20;5.83;;;4.73;;
11123;SDS011;5616;42.692;23.312;2023-01-28T01:19:47;6.03;;;4.40;;
11123;SDS011;5616;42.692;23.312;2023-01-28T01:22:15;6.25;;;5.65;;
11123;SDS011;5616;42.692;23.312;2023-01-28T01:24:42;6.30;;;5.70;;
11123;SDS011;5616;42.692;23.312;2023-01-28T01:27:08;6.47;;;5.03;;
11123;SDS011;5616;42.692;23.312;2023-01-28T01:29:35;6.43;;;5.77;;
11123;SDS011;5616;42.692;23.312;2023-01-28T01:32:04;7.17;;;5.60;;
11123;SDS011;5616;42.692;23.312;2023-01-28T01:34:31;5.60;;;5.10;;
11123;SDS011;5616;42.692;23.312;2023-01-28T01:37:00;6.03;;;5.20;;
11123;SDS011;5616;42.692;23.312;2023-01-28T01:39:28;5.03;;;4.53;;
11123;SDS011;5616;42.692;23.312;2023-01-28T01:41:54;5.30;;;4.80;;
11123;SDS011;5616;42.692;23.312;2023-01-28T01:47:24;5.20;;;4.53;;
11123;SDS011;5616;42.692;23.312;2023-01-28T01:49:59;5.03;;;4.53;;
11123;SDS011;5616;42.692;23.312;2023-01-28T01:52:32;5.10;;;4.60;;
11123;SDS011;5616;42.692;23.312;2023-01-28T01:55:02;4.70;;;4.27;;
11123;SDS011;5616;42.692;23.312;2023-01-28T01:57:34;5.30;;;4.80;;
11123;SDS011;5616;42.692;23.312;2023-01-28T02:00:03;5.43;;;4.70;;
11123;SDS011;5616;42.692;23.312;2023-01-28T02:02:43;4.80;;;4.30;;
11123;SDS011;5616;42.692;23.312;2023-01-28T02:05:13;5.40;;;4.80;;
11123;SDS011;5616;42.692;23.312;2023-01-28T02:07:43;5.77;;;4.43;;
11123;SDS011;5616;42.692;23.312;2023-01-28T02:10:11;5.33;;;4.83;;
11123;SDS011;5616;42.692;23.312;2023-01-28T02:12:39;5.60;;;4.67;;
11123;SDS011;5616;42.692;23.312;2023-01-28T02:15:11;5.40;;;4.70;;
11123;SDS011;5616;42.692;23.312;2023-01-28T02:17:41;5.50;;;4.83;;
11123;SDS011;5616;42.692;23.312;2023-01-28T02:20:09;5.47;;;4.97;;
11123;SDS011;5616;42.692;23.312;2023-01-28T02:22:41;4.80;;;4.30;;
11123;SDS011;5616;42.692;23.312;2023-01-28T02:25:34;5.40;;;4.90;;
11123;SDS011;5616;42.692;23.312;2023-01-28T02:28:18;5.00;;;4.40;;
11123;SDS011;5616;42.692;23.312;2023-01-28T02:31:00;4.33;;;3.93;;
11123;SDS011;5616;42.692;23.312;2023-01-28T02:33:34;5.13;;;4.53;;
11123;SDS011;5616;42.692;23.312;2023-01-28T02:36:09;5.97;;;4.70;;
11123;SDS011;5616;42.692;23.312;2023-01-28T02:38:45;4.90;;;3.97;;
11123;SDS011;5616;42.692;23.312;2023-01-28T02:41:15;5.47;;;4.53;;
11123;SDS011;5616;42.692;23.312;2023-01-28T02:43:48;5.33;;;4.40;;
11123;SDS011;5616;42.692;23.312;2023-01-28T02:46:18;4.77;;;4.20;;
11123;SDS011;5616;42.692;23.312;2023-01-28T02:49:06;5.77;;;4.53;;
11123;SDS011;5616;42.692;23.312;2023-01-28T02:51:39;4.33;;;3.93;;
11123;SDS011;5616;42.692;23.312;2023-01-28T02:54:18;4.43;;;4.00;;
11123;SDS011;5616;42.692;23.312;2023-01-28T02:57:02;5.87;;;4.43;;
11123;SDS011;5616;42.692;23.312;2023-01-28T02:59:40;4.83;;;4.23;;
11123;SDS011;5616;42.692;23.312;2023-01-28T03:02:15;4.47;;;4.07;;
11123;SDS011;5616;42.692;23.312;2023-01-28T03:04:49;5.28;;;4.47;;
11123;SDS011;5616;42.692;23.312;2023-01-28T03:07:23;4.50;;;4.10;;
11123;SDS011;5616;42.692;23.312;2023-01-28T03:09:56;4.73;;;4.30;;
11123;SDS011;5616;42.692;23.312;2023-01-28T03:12:28;5.23;;;3.90;;
11123;SDS011;5616;42.692;23.312;2023-01-28T03:15:17;3.80;;;3.40;;
11123;SDS011;5616;42.692;23.312;2023-01-28T03:18:04;4.57;;;3.87;;
11123;SDS011;5616;42.692;23.312;2023-01-28T03:20:53;3.73;;;3.27;;
11123;SDS011;5616;42.692;23.312;2023-01-28T03:23:47;3.95;;;3.55;;
11123;SDS011;5616;42.692;23.312;2023-01-28T03:26:37;4.67;;;4.07;;
11123;SDS011;5616;42.692;23.312;2023-01-28T03:29:29;4.57;;;3.80;;
11123;SDS011;5616;42.692;23.312;2023-01-28T03:32:20;4.57;;;3.63;;
11123;SDS011;5616;42.692;23.312;2023-01-28T03:35:06;4.73;;;4.23;;
11123;SDS011;5616;42.692;23.312;2023-01-28T03:37:53;4.27;;;3.83;;
11123;SDS011;5616;42.692;23.312;2023-01-28T03:40:24;4.63;;;4.23;;
11123;SDS011;5616;42.692;23.312;2023-01-28T03:42:52;4.97;;;4.47;;
11123;SDS011;5616;42.692;23.312;2023-01-28T03:45:31;4.67;;;4.27;;
11123;SDS011;5616;42.692;23.312;2023-01-28T03:48:01;4.90;;;4.33;;
11123;SDS011;5616;42.692;23.312;2023-01-28T03:50:28;5.17;;;4.43;;
11123;SDS011;5616;42.692;23.312;2023-01-28T03:52:59;4.40;;;3.90;;
11123;SDS011;5616;42.692;23.312;2023-01-28T03:55:43;4.57;;;3.90;;
11123;SDS011;5616;42.692;23.312;2023-01-28T03:58:10;4.30;;;3.83;;
11123;SDS011;5616;42.692;23.312;2023-01-28T04:00:38;4.93;;;4.43;;
11123;SDS011;5616;42.692;23.312;2023-01-28T04:03:08;4.80;;;4.30;;
11123;SDS011;5616;42.692;23.312;2023-01-28T04:05:41;4.50;;;3.93;;
11123;SDS011;5616;42.692;23.312;2023-01-28T04:08:08;5.03;;;4.03;;
11123;SDS011;5616;42.692;23.312;2023-01-28T04:10:54;5.63;;;4.20;;
11123;SDS011;5616;42.692;23.312;2023-01-28T04:13:28;4.83;;;4.43;;
11123;SDS011;5616;42.692;23.312;2023-01-28T04:15:55;4.43;;;4.03;;
11123;SDS011;5616;42.692;23.312;2023-01-28T04:18:23;4.40;;;4.00;;
11123;SDS011;5616;42.692;23.312;2023-01-28T04:20:53;4.97;;;4.47;;
11123;SDS011;5616;42.692;23.312;2023-01-28T04:23:20;4.67;;;4.17;;
11123;SDS011;5616;42.692;23.312;2023-01-28T04:25:48;5.17;;;4.47;;
11123;SDS011;5616;42.692;23.312;2023-01-28T04:28:16;4.80;;;4.10;;
11123;SDS011;5616;42.692;23.312;2023-01-28T04:30:43;4.93;;;4.20;;
11123;SDS011;5616;42.692;23.312;2023-01-28T04:33:34;4.47;;;4.07;;
11123;SDS011;5616;42.692;23.312;2023-01-28T04:36:21;4.60;;;4.10;;
11123;SDS011;5616;42.692;23.312;2023-01-28T04:39:27;5.07;;;4.27;;
11123;SDS011;5616;42.692;23.312;2023-01-28T04:42:13;4.63;;;4.10;;
11123;SDS011;5616;42.692;23.312;2023-01-28T04:45:15;4.33;;;3.93;;
11123;SDS011;5616;42.692;23.312;2023-01-28T04:48:06;4.33;;;3.90;;
11123;SDS011;5616;42.692;23.312;2023-01-28T04:50:57;4.80;;;4.27;;
11123;SDS011;5616;42.692;23.312;2023-01-28T04:53:33;4.63;;;4.07;;
11123;SDS011;5616;42.692;23.312;2023-01-28T04:56:05;5.13;;;4.27;;
11123;SDS011;5616;42.692;23.312;2023-01-28T04:58:34;4.77;;;4.27;;
11123;SDS011;5616;42.692;23.312;2023-01-28T05:01:04;5.37;;;4.50;;
11123;SDS011;5616;42.692;23.312;2023-01-28T05:03:31;4.50;;;4.10;;
11123;SDS011;5616;42.692;23.312;2023-01-28T05:06:00;4.53;;;4.13;;
11123;SDS011;5616;42.692;23.312;2023-01-28T05:08:36;4.90;;;4.40;;
11123;SDS011;5616;42.692;23.312;2023-01-28T05:11:03;4.80;;;4.30;;
11123;SDS011;5616;42.692;23.312;2023-01-28T05:13:30;7.50;;;4.17;;
11123;SDS011;5616;42.692;23.312;2023-01-28T05:15:57;4.60;;;3.87;;
11123;SDS011;5616;42.692;23.312;2023-01-28T05:18:24;5.90;;;4.43;;
11123;SDS011;5616;42.692;23.312;2023-01-28T05:21:05;5.33;;;4.40;;
11123;SDS011;5616;42.692;23.312;2023-01-28T05:23:34;5.87;;;4.70;;
11123;SDS011;5616;42.692;23.312;2023-01-28T05:26:01;5.87;;;4.33;;
11123;SDS011;5616;42.692;23.312;2023-01-28T05:28:28;4.90;;;4.30;;
11123;SDS011;5616;42.692;23.312;2023-01-28T05:30:56;4.70;;;4.30;;
11123;SDS011;5616;42.692;23.312;2023-01-28T05:33:28;4.23;;;3.83;;
11123;SDS011;5616;42.692;23.312;2023-01-28T05:35:55;5.23;;;4.73;;
11123;SDS011;5616;42.692;23.312;2023-01-28T05:38:24;4.90;;;4.30;;
11123;SDS011;5616;42.692;23.312;2023-01-28T05:40:50;5.17;;;4.67;;
11123;SDS011;5616;42.692;23.312;2023-01-28T05:43:17;5.00;;;4.50;;
11123;SDS011;5616;42.692;23.312;2023-01-28T05:46:03;5.27;;;4.77;;
11123;SDS011;5616;42.692;23.312;2023-01-28T05:49:05;5.67;;;4.70;;
11123;SDS011;5616;42.692;23.312;2023-01-28T05:51:36;5.00;;;4.47;;
11123;SDS011;5616;42.692;23.312;2023-01-28T05:54:05;5.57;;;4.73;;
11123;SDS011;5616;42.692;23.312;2023-01-28T05:56:33;5.83;;;4.70;;
11123;SDS011;5616;42.692;23.312;2023-01-28T05:59:01;5.93;;;5.30;;
11123;SDS011;5616;42.692;23.312;2023-01-28T06:01:29;5.43;;;4.93;;
11123;SDS011;5616;42.692;23.312;2023-01-28T06:03:57;6.13;;;5.47;;
11123;SDS011;5616;42.692;23.312;2023-01-28T06:06:27;6.07;;;5.47;;
11123;SDS011;5616;42.692;23.312;2023-01-28T06:08:54;5.47;;;4.87;;
11123;SDS011;5616;42.692;23.312;2023-01-28T06:11:27;5.93;;;5.30;;
11123;SDS011;5616;42.692;23.312;2023-01-28T06:13:58;6.07;;;5.27;;
11123;SDS011;5616;42.692;23.312;2023-01-28T06:16:33;5.93;;;5.33;;
11123;SDS011;5616;42.692;23.312;2023-01-28T06:19:26;5.47;;;4.87;;
11123;SDS011;5616;42.692;23.312;2023-01-28T06:21:53;5.10;;;4.50;;
11123;SDS011;5616;42.692;23.312;2023-01-28T06:24:20;5.63;;;5.00;;
11123;SDS011;5616;42.692;23.312;2023-01-28T06:26:48;5.77;;;4.93;;
11123;SDS011;5616;42.692;23.312;2023-01-28T06:29:15;5.82;;;5.22;;
11123;SDS011;5616;42.692;23.312;2023-01-28T06:31:42;4.97;;;4.50;;
11123;SDS011;5616;42.692;23.312;2023-01-28T06:34:09;5.27;;;4.67;;
11123;SDS011;5616;42.692;23.312;2023-01-28T06:36:36;6.07;;;5.43;;
11123;SDS011;5616;42.692;23.312;2023-01-28T06:39:03;6.70;;;5.80;;
11123;SDS011;5616;42.692;23.312;2023-01-28T06:41:30;5.63;;;5.10;;
11123;SDS011;5616;42.692;23.312;2023-01-28T06:43:58;6.47;;;5.77;;
11123;SDS011;5616;42.692;23.312;2023-01-28T06:46:25;6.93;;;5.37;;
11123;SDS011;5616;42.692;23.312;2023-01-28T06:48:51;7.43;;;5.60;;
11123;SDS011;5616;42.692;23.312;2023-01-28T06:51:18;6.37;;;5.40;;
11123;SDS011;5616;42.692;23.312;2023-01-28T06:53:45;5.93;;;5.33;;
11123;SDS011;5616;42.692;23.312;2023-01-28T06:56:12;8.20;;;5.83;;
11123;SDS011;5616;42.692;23.312;2023-01-28T06:58:39;6.20;;;5.50;;
11123;SDS011;5616;42.692;23.312;2023-01-28T07:01:07;6.43;;;5.27;;
11123;SDS011;5616;42.692;23.312;2023-01-28T07:03:35;7.07;;;5.87;;
11123;SDS011;5616;42.692;23.312;2023-01-28T07:06:02;6.63;;;5.73;;
11123;SDS011;5616;42.692;23.312;2023-01-28T07:08:29;7.00;;;5.57;;
11123;SDS011;5616;42.692;23.312;2023-01-28T07:10:57;6.70;;;5.43;;
11123;SDS011;5616;42.692;23.312;2023-01-28T07:13:24;6.77;;;5.60;;
11123;SDS011;5616;42.692;23.312;2023-01-28T07:15:51;6.43;;;5.30;;
11123;SDS011;5616;42.692;23.312;2023-01-28T07:18:19;6.20;;;5.27;;
11123;SDS011;5616;42.692;23.312;2023-01-28T07:20:46;6.07;;;5.40;;
11123;SDS011;5616;42.692;23.312;2023-01-28T07:23:13;6.00;;;5.40;;
11123;SDS011;5616;42.692;23.312;2023-01-28T07:25:40;7.40;;;5.80;;
11123;SDS011;5616;42.692;23.312;2023-01-28T07:28:07;5.97;;;5.37;;
11123;SDS011;5616;42.692;23.312;2023-01-28T07:30:33;7.13;;;5.57;;
11123;SDS011;5616;42.692;23.312;2023-01-28T07:33:00;6.33;;;5.40;;
11123;SDS011;5616;42.692;23.312;2023-01-28T07:35:28;6.90;;;5.40;;
11123;SDS011;5616;42.692;23.312;2023-01-28T07:37:58;6.57;;;5.83;;
11123;SDS011;5616;42.692;23.312;2023-01-28T07:40:26;6.07;;;5.47;;
11123;SDS011;5616;42.692;23.312;2023-01-28T07:42:54;5.83;;;5.23;;
11123;SDS011;5616;42.692;23.312;2023-01-28T07:45:21;7.33;;;5.73;;
11123;SDS011;5616;42.692;23.312;2023-01-28T07:47:54;7.00;;;6.30;;
11123;SDS011;5616;42.692;23.312;2023-01-28T07:50:22;7.77;;;6.20;;
11123;SDS011;5616;42.692;23.312;2023-01-28T07:52:50;6.97;;;6.27;;
11123;SDS011;5616;42.692;23.312;2023-01-28T07:55:17;7.83;;;6.13;;
11123;SDS011;5616;42.692;23.312;2023-01-28T07:57:47;6.37;;;5.67;;
11123;SDS011;5616;42.692;23.312;2023-01-28T08:00:16;7.27;;;6.00;;
11123;SDS011;5616;42.692;23.312;2023-01-28T08:02:43;6.80;;;6.10;;
11123;SDS011;5616;42.692;23.312;2023-01-28T08:05:13;6.83;;;5.53;;
11123;SDS011;5616;42.692;23.312;2023-01-28T08:07:41;6.07;;;5.47;;
11123;SDS011;5616;42.692;23.312;2023-01-28T08:10:10;6.80;;;5.93;;
11123;SDS011;5616;42.692;23.312;2023-01-28T08:12:37;6.07;;;5.33;;
11123;SDS011;5616;42.692;23.312;2023-01-28T08:15:04;7.43;;;6.17;;
11123;SDS011;5616;42.692;23.312;2023-01-28T08:17:32;8.17;;;6.50;;
11123;SDS011;5616;42.692;23.312;2023-01-28T08:19:59;6.30;;;5.70;;
11123;SDS011;5616;42.692;23.312;2023-01-28T08:22:26;11.53;;;5.73;;
11123;SDS011;5616;42.692;23.312;2023-01-28T08:24:53;16.83;;;9.63;;
11123;SDS011;5616;42.692;23.312;2023-01-28T08:27:21;10.17;;;6.07;;
11123;SDS011;5616;42.692;23.312;2023-01-28T08:29:48;7.00;;;5.37;;
11123;SDS011;5616;42.692;23.312;2023-01-28T08:32:15;6.37;;;5.77;;
11123;SDS011;5616;42.692;23.312;2023-01-28T08:34:41;7.20;;;5.70;;
11123;SDS011;5616;42.692;23.312;2023-01-28T08:37:08;6.43;;;5.27;;
11123;SDS011;5616;42.692;23.312;2023-01-28T08:39:35;6.13;;;5.53;;
11123;SDS011;5616;42.692;23.312;2023-01-28T08:42:02;5.87;;;5.27;;
11123;SDS011;5616;42.692;23.312;2023-01-28T08:44:32;6.43;;;5.17;;
11123;SDS011;5616;42.692;23.312;2023-01-28T08:46:59;6.17;;;5.53;;
11123;SDS011;5616;42.692;23.312;2023-01-28T08:49:26;5.57;;;5.00;;
11123;SDS011;5616;42.692;23.312;2023-01-28T08:51:53;6.63;;;5.10;;
11123;SDS011;5616;42.692;23.312;2023-01-28T08:54:20;5.87;;;5.27;;
11123;SDS011;5616;42.692;23.312;2023-01-28T08:56:47;6.87;;;5.77;;
11123;SDS011;5616;42.692;23.312;2023-01-28T08:59:14;5.90;;;5.23;;
11123;SDS011;5616;42.692;23.312;2023-01-28T09:01:42;5.40;;;4.87;;
11123;SDS011;5616;42.692;23.312;2023-01-28T09:04:09;5.30;;;4.80;;
11123;SDS011;5616;42.692;23.312;2023-01-28T09:06:36;5.80;;;4.90;;
11123;SDS011;5616;42.692;23.312;2023-01-28T09:09:02;5.43;;;4.80;;
11123;SDS011;5616;42.692;23.312;2023-01-28T09:11:29;6.93;;;5.10;;
11123;SDS011;5616;42.692;23.312;2023-01-28T09:13:56;5.10;;;4.60;;
11123;SDS011;5616;42.692;23.312;2023-01-28T09:16:23;5.97;;;5.33;;
11123;SDS011;5616;42.692;23.312;2023-01-28T09:18:52;6.67;;;5.67;;
11123;SDS011;5616;42.692;23.312;2023-01-28T09:21:19;9.70;;;8.30;;
11123;SDS011;5616;42.692;23.312;2023-01-28T09:23:46;7.73;;;6.93;;
11123;SDS011;5616;42.692;23.312;2023-01-28T09:26:12;7.27;;;6.57;;
11123;SDS011;5616;42.692;23.312;2023-01-28T09:28:39;6.43;;;5.33;;
11123;SDS011;5616;42.692;23.312;2023-01-28T09:31:07;7.17;;;5.90;;
11123;SDS011;5616;42.692;23.312;2023-01-28T09:33:35;8.53;;;5.40;;
11123;SDS011;5616;42.692;23.312;2023-01-28T09:36:06;6.13;;;5.23;;
11123;SDS011;5616;42.692;23.312;2023-01-28T09:38:35;5.30;;;4.80;;
11123;SDS011;5616;42.692;23.312;2023-01-28T09:41:01;6.53;;;5.20;;
11123;SDS011;5616;42.692;23.312;2023-01-28T09:43:42;7.53;;;5.37;;
11123;SDS011;5616;42.692;23.312;2023-01-28T09:46:21;6.90;;;5.73;;
11123;SDS011;5616;42.692;23.312;2023-01-28T09:48:56;5.90;;;5.33;;
11123;SDS011;5616;42.692;23.312;2023-01-28T09:51:30;5.53;;;5.00;;
11123;SDS011;5616;42.692;23.312;2023-01-28T09:54:01;6.33;;;5.10;;
11123;SDS011;5616;42.692;23.312;2023-01-28T09:56:33;6.33;;;5.40;;
11123;SDS011;5616;42.692;23.312;2023-01-28T09:59:07;6.00;;;5.20;;
11123;SDS011;5616;42.692;23.312;2023-01-28T10:01:44;6.30;;;5.40;;
11123;SDS011;5616;42.692;23.312;2023-01-28T10:04:20;6.13;;;5.20;;
11123;SDS011;5616;42.692;23.312;2023-01-28T10:07:00;8.07;;;6.67;;
11123;SDS011;5616;42.692;23.312;2023-01-28T10:09:40;9.17;;;6.70;;
11123;SDS011;5616;42.692;23.312;2023-01-28T10:12:16;8.87;;;5.70;;
11123;SDS011;5616;42.692;23.312;2023-01-28T10:14:56;6.47;;;5.27;;
11123;SDS011;5616;42.692;23.312;2023-01-28T10:17:37;6.00;;;5.40;;
11123;SDS011;5616;42.692;23.312;2023-01-28T10:20:13;7.40;;;5.63;;
11123;SDS011;5616;42.692;23.312;2023-01-28T10:22:47;7.57;;;6.67;;
11123;SDS011;5616;42.692;23.312;2023-01-28T10:25:19;8.43;;;6.90;;
11123;SDS011;5616;42.692;23.312;2023-01-28T10:27:48;14.27;;;12.23;;
11123;SDS011;5616;42.692;23.312;2023-01-28T10:30:17;7.77;;;6.90;;
11123;SDS011;5616;42.692;23.312;2023-01-28T10:32:48;8.20;;;6.50;;
11123;SDS011;5616;42.692;23.312;2023-01-28T10:35:18;8.77;;;6.70;;
11123;SDS011;5616;42.692;23.312;2023-01-28T10:37:47;7.07;;;6.10;;
11123;SDS011;5616;42.692;23.312;2023-01-28T10:40:14;7.93;;;6.40;;
11123;SDS011;5616;42.692;23.312;2023-01-28T10:42:43;7.97;;;5.97;;
11123;SDS011;5616;42.692;23.312;2023-01-28T10:45:14;6.70;;;6.00;;
11123;SDS011;5616;42.692;23.312;2023-01-28T10:47:44;6.67;;;5.73;;
11123;SDS011;5616;42.692;23.312;2023-01-28T10:50:14;7.37;;;5.97;;
11123;SDS011;5616;42.692;23.312;2023-01-28T10:52:53;7.03;;;6.33;;
11123;SDS011;5616;42.692;23.312;2023-01-28T10:55:21;7.63;;;6.03;;
11123;SDS011;5616;42.692;23.312;2023-01-28T10:57:49;7.07;;;6.00;;
11123;SDS011;5616;42.692;23.312;2023-01-28T11:00:26;5.90;;;5.30;;
11123;SDS011;5616;42.692;23.312;2023-01-28T11:02:57;7.47;;;6.10;;
11123;SDS011;5616;42.692;23.312;2023-01-28T11:05:25;7.13;;;6.13;;
11123;SDS011;5616;42.692;23.312;2023-01-28T11:08:05;6.97;;;6.03;;
11123;SDS011;5616;42.692;23.312;2023-01-28T11:10:39;6.27;;;5.67;;
11123;SDS011;5616;42.692;23.312;2023-01-28T11:13:13;6.47;;;5.77;;
11123;SDS011;5616;42.692;23.312;2023-01-28T11:15:45;7.10;;;6.40;;
11123;SDS011;5616;42.692;23.312;2023-01-28T11:18:15;7.47;;;6.20;;
11123;SDS011;5616;42.692;23.312;2023-01-28T11:20:48;7.20;;;5.97;;
11123;SDS011;5616;42.692;23.312;2023-01-28T11:23:21;9.57;;;6.63;;
11123;SDS011;5616;42.692;23.312;2023-01-28T11:25:58;7.17;;;6.30;;
11123;SDS011;5616;42.692;23.312;2023-01-28T11:28:27;6.60;;;5.90;;
11123;SDS011;5616;42.692;23.312;2023-01-28T11:30:55;6.27;;;5.67;;
11123;SDS011;5616;42.692;23.312;2023-01-28T11:33:27;6.10;;;5.50;;
11123;SDS011;5616;42.692;23.312;2023-01-28T11:36:03;9.30;;;5.93;;
11123;SDS011;5616;42.692;23.312;2023-01-28T11:38:34;6.13;;;5.53;;
11123;SDS011;5616;42.692;23.312;2023-01-28T11:41:01;6.97;;;5.47;;
11123;SDS011;5616;42.692;23.312;2023-01-28T11:43:28;6.27;;;5.27;;
11123;SDS011;5616;42.692;23.312;2023-01-28T11:46:07;6.23;;;5.20;;
11123;SDS011;5616;42.692;23.312;2023-01-28T11:48:49;6.27;;;5.50;;
11123;SDS011;5616;42.692;23.312;2023-01-28T11:51:29;6.13;;;5.53;;
11123;SDS011;5616;42.692;23.312;2023-01-28T11:54:08;5.77;;;5.27;;
11123;SDS011;5616;42.692;23.312;2023-01-28T11:56:47;6.00;;;5.40;;
11123;SDS011;5616;42.692;23.312;2023-01-28T11:59:26;8.40;;;5.80;;
11123;SDS011;5616;42.692;23.312;2023-01-28T12:02:07;10.07;;;5.20;;
11123;SDS011;5616;42.692;23.312;2023-01-28T12:04:55;7.37;;;5.20;;
11123;SDS011;5616;42.692;23.312;2023-01-28T12:07:41;5.53;;;4.83;;
11123;SDS011;5616;42.692;23.312;2023-01-28T12:10:17;5.93;;;4.83;;
11123;SDS011;5616;42.692;23.312;2023-01-28T12:12:53;5.20;;;4.70;;
11123;SDS011;5616;42.692;23.312;2023-01-28T12:18:31;6.30;;;5.20;;
11123;SDS011;5616;42.692;23.312;2023-01-28T12:21:12;7.73;;;5.60;;
11123;SDS011;5616;42.692;23.312;2023-01-28T12:23:52;7.30;;;5.07;;
11123;SDS011;5616;42.692;23.312;2023-01-28T12:26:31;6.43;;;4.93;;
11123;SDS011;5616;42.692;23.312;2023-01-28T12:29:10;6.30;;;5.10;;
11123;SDS011;5616;42.692;23.312;2023-01-28T12:31:55;5.67;;;5.07;;
11123;SDS011;5616;42.692;23.312;2023-01-28T12:34:53;6.40;;;5.80;;
11123;SDS011;5616;42.692;23.312;2023-01-28T12:37:36;7.17;;;5.83;;
11123;SDS011;5616;42.692;23.312;2023-01-28T12:40:23;6.70;;;5.80;;
11123;SDS011;5616;42.692;23.312;2023-01-28T12:43:10;6.47;;;5.87;;
11123;SDS011;5616;42.692;23.312;2023-01-28T12:45:42;7.33;;;5.60;;
11123;SDS011;5616;42.692;23.312;2023-01-28T12:48:11;7.40;;;5.80;;
11123;SDS011;5616;42.692;23.312;2023-01-28T12:50:43;7.33;;;5.50;;
11123;SDS011;5616;42.692;23.312;2023-01-28T12:53:18;7.13;;;5.70;;
11123;SDS011;5616;42.692;23.312;2023-01-28T12:55:50;10.23;;;5.83;;
11123;SDS011;5616;42.692;23.312;2023-01-28T12:58:26;7.97;;;6.33;;
11123;SDS011;5616;42.692;23.312;2023-01-28T13:01:03;6.63;;;5.93;;
11123;SDS011;5616;42.692;23.312;2023-01-28T13:03:36;7.43;;;6.23;;
11123;SDS011;5616;42.692;23.312;2023-01-28T13:06:07;8.40;;;6.93;;
11123;SDS011;5616;42.692;23.312;2023-01-28T13:08:40;6.83;;;6.13;;
11123;SDS011;5616;42.692;23.312;2023-01-28T13:11:09;7.53;;;5.90;;
11123;SDS011;5616;42.692;23.312;2023-01-28T13:13:41;7.00;;;6.30;;
11123;SDS011;5616;42.692;23.312;2023-01-28T13:16:10;9.37;;;6.10;;
11123;SDS011;5616;42.692;23.312;2023-01-28T13:18:42;7.37;;;6.67;;
11123;SDS011;5616;42.692;23.312;2023-01-28T13:21:15;9.90;;;6.57;;
11123;SDS011;5616;42.692;23.312;2023-01-28T13:24:02;6.73;;;6.03;;
11123;SDS011;5616;42.692;23.312;2023-01-28T13:26:36;7.10;;;6.40;;
11123;SDS011;5616;42.692;23.312;2023-01-28T13:29:18;9.17;;;6.27;;
11123;SDS011;5616;42.692;23.312;2023-01-28T13:31:54;7.27;;;5.70;;
11123;SDS011;5616;42.692;23.312;2023-01-28T13:34:26;6.80;;;6.10;;
11123;SDS011;5616;42.692;23.312;2023-01-28T13:37:12;8.40;;;6.00;;
11123;SDS011;5616;42.692;23.312;2023-01-28T13:39:48;5.90;;;5.30;;
11123;SDS011;5616;42.692;23.312;2023-01-28T13:42:21;7.23;;;6.10;;
11123;SDS011;5616;42.692;23.312;2023-01-28T13:44:52;6.47;;;5.87;;
11123;SDS011;5616;42.692;23.312;2023-01-28T13:47:21;7.27;;;6.13;;
11123;SDS011;5616;42.692;23.312;2023-01-28T13:49:53;6.63;;;5.53;;
11123;SDS011;5616;42.692;23.312;2023-01-28T13:52:25;7.07;;;5.80;;
11123;SDS011;5616;42.692;23.312;2023-01-28T13:54:55;7.53;;;6.13;;
11123;SDS011;5616;42.692;23.312;2023-01-28T13:57:44;7.20;;;5.57;;
11123;SDS011;5616;42.692;23.312;2023-01-28T14:00:44;8.53;;;6.23;;
11123;SDS011;5616;42.692;23.312;2023-01-28T14:03:35;6.00;;;5.40;;
11123;SDS011;5616;42.692;23.312;2023-01-28T14:06:25;6.90;;;6.10;;
11123;SDS011;5616;42.692;23.312;2023-01-28T14:09:19;7.83;;;6.40;;
11123;SDS011;5616;42.692;23.312;2023-01-28T14:15:31;8.87;;;7.50;;
11123;SDS011;5616;42.692;23.312;2023-01-28T14:18:22;12.47;;;8.90;;
11123;SDS011;5616;42.692;23.312;2023-01-28T14:20:52;8.60;;;7.60;;
11123;SDS011;5616;42.692;23.312;2023-01-28T14:23:21;10.13;;;7.83;;
11123;SDS011;5616;42.692;23.312;2023-01-28T14:26:03;6.63;;;5.87;;
11123;SDS011;5616;42.692;23.312;2023-01-28T14:28:45;7.20;;;5.90;;
11123;SDS011;5616;42.692;23.312;2023-01-28T14:31:22;8.47;;;6.60;;
11123;SDS011;5616;42.692;23.312;2023-01-28T14:33:52;8.77;;;7.57;;
11123;SDS011;5616;42.692;23.312;2023-01-28T14:36:19;8.63;;;7.50;;
11123;SDS011;5616;42.692;23.312;2023-01-28T14:38:46;8.33;;;6.30;;
11123;SDS011;5616;42.692;23.312;2023-01-28T14:41:17;7.70;;;6.90;;
11123;SDS011;5616;42.692;23.312;2023-01-28T14:43:50;7.17;;;6.47;;
11123;SDS011;5616;42.692;23.312;2023-01-28T14:46:24;6.77;;;5.90;;
11123;SDS011;5616;42.692;23.312;2023-01-28T14:49:02;6.23;;;5.37;;
11123;SDS011;5616;42.692;23.312;2023-01-28T14:51:42;6.63;;;5.73;;
11123;SDS011;5616;42.692;23.312;2023-01-28T14:54:35;7.27;;;6.07;;
11123;SDS011;5616;42.692;23.312;2023-01-28T14:57:15;6.80;;;5.83;;
11123;SDS011;5616;42.692;23.312;2023-01-28T14:59:57;6.50;;;5.13;;
11123;SDS011;5616;42.692;23.312;2023-01-28T15:02:27;8.10;;;5.70;;
11123;SDS011;5616;42.692;23.312;2023-01-28T15:05:06;6.13;;;5.50;;
11123;SDS011;5616;42.692;23.312;2023-01-28T15:07:33;6.33;;;5.73;;
11123;SDS011;5616;42.692;23.312;2023-01-28T15:10:00;6.27;;;5.10;;
11123;SDS011;5616;42.692;23.312;2023-01-28T15:12:28;6.17;;;5.23;;
11123;SDS011;5616;42.692;23.312;2023-01-28T15:15:06;6.70;;;5.70;;
11123;SDS011;5616;42.692;23.312;2023-01-28T15:17:35;6.50;;;5.77;;
11123;SDS011;5616;42.692;23.312;2023-01-28T15:20:02;8.57;;;5.97;;
11123;SDS011;5616;42.692;23.312;2023-01-28T15:22:33;7.30;;;6.03;;
11123;SDS011;5616;42.692;23.312;2023-01-28T15:25:00;6.63;;;6.00;;
11123;SDS011;5616;42.692;23.312;2023-01-28T15:27:27;9.17;;;6.10;;
11123;SDS011;5616;42.692;23.312;2023-01-28T15:29:55;6.57;;;5.87;;